Time;durP1;ratioP1;P1;durP2;ratioP2;P2;SDS_P1;SDS_P2;PMS_P1;PMS_P2;Temp;Humidity;BMP_temperature;BMP_pressure;BME280_temperature;BME280_humidity;BME280_pressure;Samples;Min_cycle;Max_cycle;Signal;HPM_P1;HPM_P2
2021/05/06 00:06:30;;;;;;;5.97;1.55;;;6.20;99.90;;;;;;20757850;28;20057;-77
2021/05/06 00:36:23;;;;;;;4.35;1.33;;;5.50;99.90;;;;;;20755779;28;20040;-77
2021/05/06 00:56:59;;;;;;;5.95;1.63;;;5.40;99.90;;;;;;20752316;28;20121;-77
2021/05/06 01:17:01;;;;;;;4.50;2.17;;;5.20;99.90;;;;;;20767369;28;20038;-77
2021/05/06 01:37:12;;;;;;;1.83;1.35;;;5.20;99.90;;;;;;20757206;28;20037;-77
2021/05/06 02:08:08;;;;;;;3.38;1.75;;;5.00;99.90;;;;;;20744072;28;20030;-76
2021/05/06 02:18:17;;;;;;;4.38;1.67;;;5.20;99.90;;;;;;20762831;28;20068;-77
2021/05/06 02:28:18;;;;;;;2.78;1.70;;;5.20;99.90;;;;;;20767330;28;20034;-78
2021/05/06 02:38:19;;;;;;;7.97;2.43;;;5.00;99.90;;;;;;20750770;28;20388;-77
2021/05/06 02:48:19;;;;;;;5.03;1.87;;;5.20;99.90;;;;;;20767297;28;20050;-77
2021/05/06 02:58:54;;;;;;;4.50;2.03;;;5.40;99.90;;;;;;20828852;28;20034;-77
2021/05/06 03:08:44;;;;;;;5.55;1.92;;;5.40;99.90;;;;;;20827448;28;20084;-78
2021/05/06 03:29:10;;;;;;;8.00;1.67;;;5.50;99.90;;;;;;20830502;28;20052;-78
2021/05/06 03:50:33;;;;;;;5.32;2.53;;;5.60;99.90;;;;;;20838923;28;20049;-75
2021/05/06 04:41:42;;;;;;;8.23;2.50;;;5.20;99.90;;;;;;20834116;28;20038;-77
2021/05/06 05:32:58;;;;;;;9.55;3.08;;;6.30;99.90;;;;;;20792379;28;20037;-77
2021/05/06 06:03:19;;;;;;;8.10;2.20;;;7.30;99.90;;;;;;20792595;28;20021;-77
2021/05/06 06:13:20;;;;;;;6.57;2.53;;;7.80;99.90;;;;;;20828735;28;20044;-77
2021/05/06 06:23:21;;;;;;;9.20;2.40;;;8.30;99.90;;;;;;20833625;28;20042;-77
2021/05/06 06:33:22;;;;;;;4.27;2.40;;;8.50;99.90;;;;;;20786845;28;20116;-77
2021/05/06 06:43:23;;;;;;;6.80;2.40;;;8.70;99.90;;;;;;20785814;28;20022;-77
2021/05/06 06:53:24;;;;;;;4.07;1.90;;;9.00;99.90;;;;;;20799241;28;20025;-77
2021/05/06 07:03:25;;;;;;;10.83;2.57;;;9.20;99.90;;;;;;20827262;28;20045;-77
2021/05/06 07:13:27;;;;;;;11.57;2.07;;;9.30;99.90;;;;;;20774949;28;20030;-76
2021/05/06 07:23:29;;;;;;;6.05;2.17;;;9.30;99.90;;;;;;20753397;28;20030;-76
2021/05/06 07:33:31;;;;;;;11.18;2.63;;;10.00;99.90;;;;;;20743692;28;20105;-77
2021/05/06 07:43:32;;;;;;;12.80;2.07;;;10.30;99.90;;;;;;20743392;28;20068;-77
2021/05/06 07:53:42;;;;;;;2.97;1.73;;;9.90;99.90;;;;;;20742944;28;20050;-77
2021/05/06 08:03:44;;;;;;;2.97;1.70;;;9.80;99.90;;;;;;20761287;28;20088;-77
2021/05/06 08:13:46;;;;;;;11.15;1.92;;;9.90;99.90;;;;;;20778919;28;20034;-78
2021/05/06 08:23:46;;;;;;;4.38;1.75;;;9.80;99.90;;;;;;20784659;28;20034;-78
2021/05/06 08:33:47;;;;;;;4.47;1.63;;;10.10;99.90;;;;;;20788626;28;20030;-78
2021/05/06 08:43:59;;;;;;;5.33;1.70;;;9.90;99.90;;;;;;20774054;28;20033;-78
2021/05/06 08:54:00;;;;;;;7.27;2.30;;;9.60;99.90;;;;;;20851369;28;20029;-78
2021/05/06 09:04:01;;;;;;;10.50;1.50;;;9.50;99.90;;;;;;20857229;28;20085;-78
2021/05/06 09:14:03;;;;;;;9.00;2.53;;;9.60;99.90;;;;;;20875134;28;20045;-79
2021/05/06 09:24:05;;;;;;;13.68;4.63;;;9.60;99.90;;;;;;20843553;28;20041;-78
2021/05/06 09:34:09;;;;;;;4.22;2.03;;;9.40;99.90;;;;;;20843416;28;20058;-77
2021/05/06 09:44:13;;;;;;;5.60;1.95;;;9.30;99.90;;;;;;20841325;28;20025;-77
2021/05/06 09:54:19;;;;;;;7.38;2.00;;;9.30;99.90;;;;;;20848962;28;20029;-79
2021/05/06 10:04:23;;;;;;;5.03;2.28;;;9.40;99.90;;;;;;20855793;28;20033;-78
2021/05/06 10:14:24;;;;;;;6.30;2.10;;;9.30;99.90;;;;;;20849853;28;20029;-78
2021/05/06 10:24:26;;;;;;;6.67;1.97;;;9.30;99.90;;;;;;20838863;28;20032;-78
2021/05/06 10:34:28;;;;;;;8.88;2.10;;;9.10;99.90;;;;;;20844701;28;20116;-78
2021/05/06 10:44:35;;;;;;;8.63;2.30;;;8.90;99.90;;;;;;20822731;28;20099;-77
2021/05/06 10:54:40;;;;;;;10.65;2.78;;;9.00;99.90;;;;;;20781685;28;20030;-77
2021/05/06 11:04:42;;;;;;;6.55;1.90;;;8.90;99.90;;;;;;20844939;28;20546;-78
2021/05/06 11:15:04;;;;;;;9.87;2.03;;;8.90;99.90;;;;;;20798869;28;20121;-78
2021/05/06 11:26:00;;;;;;;7.03;2.20;;;8.90;99.90;;;;;;20777927;28;20037;-78
2021/05/06 11:36:13;;;;;;;6.10;2.17;;;9.10;99.90;;;;;;20837878;28;20377;-78
2021/05/06 11:46:26;;;;;;;3.88;1.50;;;9.20;99.90;;;;;;20842403;28;20029;-78
2021/05/06 11:56:27;;;;;;;3.30;1.60;;;9.00;99.90;;;;;;20855105;28;20037;-78
2021/05/06 12:06:34;;;;;;;8.40;2.00;;;9.20;99.90;;;;;;20797928;28;20190;-78
2021/05/06 12:16:37;;;;;;;5.00;2.05;;;9.10;99.90;;;;;;20741070;28;20045;-78
2021/05/06 12:26:38;;;;;;;3.65;2.10;;;9.10;99.90;;;;;;20759839;28;20390;-78
2021/05/06 12:36:50;;;;;;;4.13;2.58;;;9.20;99.90;;;;;;20775743;28;20030;-77
2021/05/06 12:47:20;;;;;;;4.60;2.60;;;9.00;99.90;;;;;;20803928;28;20527;-78
2021/05/06 12:57:21;;;;;;;7.28;3.13;;;8.80;99.90;;;;;;20797784;28;20026;-77
2021/05/06 13:07:22;;;;;;;4.97;2.17;;;8.80;99.90;;;;;;20828621;28;20120;-77
2021/05/06 13:17:29;;;;;;;5.90;2.50;;;8.70;99.90;;;;;;20822357;28;20128;-78
2021/05/06 13:27:29;;;;;;;2.22;1.85;;;8.80;99.90;;;;;;20814484;28;20117;-78
2021/05/06 13:37:43;;;;;;;5.53;2.53;;;9.00;99.90;;;;;;20812123;28;20044;-77
2021/05/06 13:47:48;;;;;;;9.13;4.35;;;9.20;99.90;;;;;;20819170;28;20091;-78
2021/05/06 13:57:49;;;;;;;7.55;3.88;;;9.20;99.90;;;;;;20825794;28;20030;-78
2021/05/06 14:07:49;;;;;;;4.70;2.57;;;9.30;99.90;;;;;;20811394;28;20034;-78
2021/05/06 14:17:50;;;;;;;4.47;2.37;;;9.40;99.90;;;;;;20810743;28;20033;-77
2021/05/06 14:27:52;;;;;;;5.97;1.87;;;9.10;99.90;;;;;;20808834;28;20041;-77
2021/05/06 14:37:53;;;;;;;9.07;2.28;;;8.90;99.90;;;;;;20809308;28;20034;-77
2021/05/06 14:47:54;;;;;;;;;;;9.10;99.90;;;;;;20807410;28;20559;-77
2021/05/06 14:57:55;;;;;;;5.20;2.57;;;9.00;99.90;;;;;;20809483;28;19939;-77
2021/05/06 15:07:57;;;;;;;5.00;2.97;;;8.70;99.90;;;;;;20811843;28;20714;-77
2021/05/06 15:17:59;;;;;;;2.60;1.67;;;8.60;99.90;;;;;;20841367;22;20130;-74
2021/05/06 15:28:00;;;;;;;2.30;1.48;;;8.90;99.90;;;;;;20888034;28;20116;-75
2021/05/06 15:38:03;;;;;;;2.80;1.90;;;9.10;99.90;;;;;;20886304;28;20086;-75
2021/05/06 15:48:04;;;;;;;6.32;2.50;;;9.20;99.90;;;;;;20885787;28;20491;-75
2021/05/06 15:58:07;;;;;;;8.10;4.27;;;9.20;99.90;;;;;;20886336;28;20082;-75
2021/05/06 16:08:08;;;;;;;4.97;2.53;;;9.30;99.90;;;;;;20886919;28;20044;-75
2021/05/06 16:18:09;;;;;;;3.67;1.40;;;9.10;99.90;;;;;;20884214;28;20499;-75
2021/05/06 16:28:10;;;;;;;3.53;1.73;;;9.10;99.90;;;;;;20894728;28;20036;-75
2021/05/06 16:38:14;;;;;;;;;;;9.20;99.90;;;;;;20900922;28;20407;-75
2021/05/06 16:48:16;;;;;;;;;;;9.40;99.90;;;;;;20925949;28;19990;-75
2021/05/06 16:58:16;;;;;;;6.32;2.70;;;9.30;99.90;;;;;;20910645;28;19930;-75
2021/05/06 17:08:17;;;;;;;3.60;1.43;;;9.40;99.90;;;;;;20896344;28;20099;-75
2021/05/06 17:18:18;;;;;;;1.03;0.70;;;9.70;99.90;;;;;;20898387;28;20033;-75
2021/05/06 17:28:19;;;;;;;0.77;0.60;;;10.10;99.90;;;;;;20895964;28;20116;-75
2021/05/06 17:38:20;;;;;;;1.60;0.63;;;10.50;99.90;;;;;;20894327;28;20093;-75
2021/05/06 17:48:21;;;;;;;3.40;0.80;;;10.70;99.90;;;;;;20894486;28;20029;-76
2021/05/06 17:58:22;;;;;;;8.27;3.80;;;10.80;99.90;;;;;;20893923;28;20032;-76
2021/05/06 18:08:25;;;;;;;1.57;1.10;;;10.90;99.90;;;;;;20892147;28;20534;-76
2021/05/06 18:18:26;;;;;;;4.82;1.00;;;10.80;99.90;;;;;;20892718;28;20037;-75
2021/05/06 18:28:27;;;;;;;4.63;0.90;;;10.70;99.90;;;;;;20890573;28;20029;-75
2021/05/06 18:38:28;;;;;;;3.97;0.80;;;9.60;99.90;;;;;;20891101;28;20040;-75
2021/05/06 18:48:30;;;;;;;7.80;0.73;;;9.40;99.90;;;;;;20889567;28;20024;-75
2021/05/06 18:58:31;;;;;;;2.95;1.13;;;9.20;99.90;;;;;;20889683;28;20033;-74
2021/05/06 19:08:32;;;;;;;5.47;1.57;;;9.00;99.90;;;;;;20889210;28;20035;-74
2021/05/06 19:18:33;;;;;;;3.57;1.73;;;8.90;99.90;;;;;;20888776;28;20029;-74
2021/05/06 19:28:34;;;;;;;3.23;1.80;;;8.90;99.90;;;;;;20887608;28;20033;-74
2021/05/06 19:38:39;;;;;;;7.35;1.98;;;8.90;99.90;;;;;;20887907;28;20667;-74
2021/05/06 19:48:41;;;;;;;11.00;2.70;;;8.90;99.90;;;;;;20886483;28;20115;-74
2021/05/06 19:58:42;;;;;;;7.83;2.17;;;8.80;99.90;;;;;;20870942;28;20680;-74
2021/05/06 20:08:42;;;;;;;8.07;1.57;;;8.90;99.90;;;;;;20901368;28;20300;-74
2021/05/06 20:18:44;;;;;;;6.07;1.50;;;8.90;99.90;;;;;;20917766;28;20029;-75
2021/05/06 20:28:45;;;;;;;3.08;1.42;;;9.00;99.90;;;;;;20898135;28;20403;-75
2021/05/06 20:38:46;;;;;;;7.03;1.30;;;8.80;99.90;;;;;;20899085;28;20041;-75
2021/05/06 20:48:47;;;;;;;12.10;3.97;;;8.90;99.90;;;;;;20899862;28;20032;-74
2021/05/06 20:58:48;;;;;;;7.03;2.33;;;8.80;99.90;;;;;;20899460;28;20029;-73
2021/05/06 21:08:49;;;;;;;5.63;2.20;;;8.80;99.90;;;;;;20897127;28;20079;-75
2021/05/06 21:18:49;;;;;;;5.30;2.07;;;8.80;99.90;;;;;;20918191;22;20049;-73
2021/05/06 21:28:50;;;;;;;8.30;1.93;;;8.80;99.90;;;;;;20894773;28;20037;-73
2021/05/06 21:38:51;;;;;;;4.77;1.77;;;9.00;99.90;;;;;;20895974;28;20047;-73
2021/05/06 21:48:53;;;;;;;3.50;1.37;;;8.90;99.90;;;;;;20894424;28;20029;-73
2021/05/06 21:58:54;;;;;;;6.30;1.80;;;8.80;99.90;;;;;;20901231;28;20040;-73
2021/05/06 22:08:56;;;;;;;8.00;1.52;;;8.70;99.90;;;;;;20908739;28;20082;-73
2021/05/06 22:18:57;;;;;;;4.30;1.65;;;8.60;99.90;;;;;;20893438;28;20037;-74
2021/05/06 22:28:58;;;;;;;6.17;1.70;;;8.50;99.90;;;;;;20910819;28;20025;-73
2021/05/06 22:38:59;;;;;;;7.10;1.67;;;8.40;99.90;;;;;;20910586;28;20112;-74
2021/05/06 22:49:00;;;;;;;6.73;2.13;;;8.30;99.90;;;;;;20910010;28;20024;-74
2021/05/06 22:59:01;;;;;;;6.20;1.83;;;8.20;99.90;;;;;;20910262;28;20033;-74
2021/05/06 23:09:02;;;;;;;6.63;1.70;;;8.20;99.90;;;;;;20909275;28;20032;-74
2021/05/06 23:19:03;;;;;;;5.80;1.70;;;8.20;99.90;;;;;;20910574;28;20491;-74
2021/05/06 23:29:04;;;;;;;2.43;0.97;;;8.30;99.90;;;;;;20907760;28;20044;-73
2021/05/06 23:39:05;;;;;;;1.97;1.57;;;8.20;99.90;;;;;;20906972;28;20052;-73
2021/05/06 23:49:06;;;;;;;2.58;1.80;;;8.30;99.90;;;;;;20906670;28;20040;-73
2021/05/06 23:59:07;;;;;;;3.93;1.70;;;8.20;99.90;;;;;;20906553;28;20051;-74
